Time;durP1;ratioP1;P1;durP2;ratioP2;P2;SDS_P1;SDS_P2;PMS_P1;PMS_P2;Temp;Humidity;BMP_temperature;BMP_pressure;BME280_temperature;BME280_humidity;BME280_pressure;Samples;Min_cycle;Max_cycle;Signal;HPM_P1;HPM_P2
2021/12/16 00:09:18;;;;;;;59.10;37.03;;;;;;;8.18;98.84;103359.66;5027905;28;20592;-61
2021/12/16 00:20:21;;;;;;;61.45;37.95;;;;;;;8.14;98.42;103355.47;5031839;28;20041;-61
2021/12/16 00:31:05;;;;;;;59.85;37.58;;;;;;;8.16;98.48;103356.25;5032053;28;20121;-61
2021/12/16 00:33:40;;;;;;;59.65;36.88;;;;;;;8.14;98.76;103358.13;5031550;28;20041;-61
2021/12/16 00:36:08;;;;;;;61.72;38.42;;;;;;;8.10;98.80;103356.59;5031632;28;20021;-61
2021/12/16 00:38:34;;;;;;;56.83;37.50;;;;;;;8.14;98.46;103363.41;5030613;28;20443;-61
2021/12/16 00:41:01;;;;;;;55.85;36.22;;;;;;;8.15;99.09;103365.09;5029854;28;20056;-61
2021/12/16 00:48:59;;;;;;;56.63;37.17;;;;;;;8.15;98.34;103369.56;5026439;28;20037;-61
2021/12/16 00:54:09;;;;;;;55.42;36.15;;;;;;;8.14;98.91;103358.13;5031140;28;20045;-61
2021/12/16 00:56:36;;;;;;;56.77;35.63;;;;;;;8.16;98.98;103361.56;5030942;28;20025;-62
2021/12/16 00:59:03;;;;;;;58.35;36.58;;;;;;;8.14;98.35;103368.69;5029231;28;20029;-61
2021/12/16 01:01:55;;;;;;;55.88;36.45;;;;;;;8.12;98.97;103362.66;5028039;28;20025;-61
2021/12/16 01:50:53;;;;;;;56.90;36.20;;;;;;;8.12;99.36;103397.00;5032408;28;20037;-61
2021/12/16 01:56:01;;;;;;;56.20;36.75;;;;;;;8.11;99.05;103395.31;5032797;28;20406;-61
2021/12/16 01:58:30;;;;;;;54.75;36.03;;;;;;;8.12;99.09;103401.41;5033910;28;20033;-61
2021/12/16 02:01:17;;;;;;;55.22;36.47;;;;;;;8.09;99.51;103399.78;5031434;28;20101;-61
2021/12/16 02:03:55;;;;;;;56.03;34.95;;;;;;;8.10;99.48;103401.53;5029949;28;20487;-61
2021/12/16 02:09:22;;;;;;;53.53;36.85;;;;;;;8.06;99.34;103398.16;5031276;28;20454;-61
2021/12/16 02:35:41;;;;;;;53.80;35.53;;;;;;;8.11;99.44;103411.16;5034330;28;20030;-61
2021/12/16 02:38:07;;;;;;;54.38;35.97;;;;;;;8.11;99.05;103421.72;5028947;28;20537;-61
2021/12/16 02:40:34;;;;;;;53.75;36.22;;;;;;;8.11;99.63;103419.09;5033434;28;20025;-61
2021/12/16 02:48:34;;;;;;;57.30;36.78;;;;;;;8.11;99.68;103420.88;5032745;28;20040;-62
2021/12/16 02:51:04;;;;;;;54.60;35.85;;;;;;;8.10;99.71;103419.16;5025131;28;20033;-61
2021/12/16 02:53:30;;;;;;;56.28;35.53;;;;;;;8.10;99.42;103427.97;5026597;28;20397;-62
2021/12/16 02:55:56;;;;;;;55.17;35.22;;;;;;;8.10;99.92;103424.44;5031620;28;20522;-61
2021/12/16 02:58:23;;;;;;;52.35;35.00;;;;;;;8.09;99.44;103423.59;5031300;28;20036;-62
2021/12/16 03:00:56;;;;;;;56.58;35.25;;;;;;;8.09;99.97;103428.88;5031281;28;20104;-61
2021/12/16 03:03:22;;;;;;;55.47;34.08;;;;;;;8.10;99.61;103414.75;5032102;28;20065;-61
2021/12/16 03:05:48;;;;;;;57.15;35.65;;;;;;;8.09;99.42;103418.28;5031968;28;20030;-61
2021/12/16 03:08:14;;;;;;;55.47;36.08;;;;;;;8.11;99.40;103415.56;5033367;28;20104;-61
2021/12/16 03:13:28;;;;;;;52.65;34.30;;;;;;;8.09;100.00;103423.59;5031911;28;20037;-61
2021/12/16 03:18:39;;;;;;;55.22;34.55;;;;;;;8.09;99.62;103413.00;5032797;28;20124;-61
2021/12/16 03:21:16;;;;;;;53.43;34.60;;;;;;;8.07;99.63;103414.88;5032323;28;20152;-61
2021/12/16 03:34:24;;;;;;;52.45;34.58;;;;;;;8.08;100.00;103422.75;5029758;28;20057;-60
2021/12/16 03:37:13;;;;;;;52.10;35.08;;;;;;;8.10;99.93;103430.59;5028956;28;20038;-61
2021/12/16 03:39:55;;;;;;;53.35;34.97;;;;;;;8.09;100.00;103423.59;5031604;28;20025;-61
2021/12/16 03:42:50;;;;;;;53.75;34.17;;;;;;;8.11;99.99;103421.72;5031981;28;20052;-61
2021/12/16 03:48:43;;;;;;;58.28;34.05;;;;;;;8.09;99.74;103426.22;5019086;28;20041;-62
2021/12/16 03:51:16;;;;;;;51.10;34.60;;;;;;;8.05;99.62;103422.88;5031397;28;20048;-62
2021/12/16 03:53:43;;;;;;;54.95;34.83;;;;;;;8.03;100.00;103430.06;5030711;28;20033;-61
2021/12/16 03:56:11;;;;;;;52.60;35.13;;;;;;;8.03;100.00;103429.19;5030282;28;20489;-61
2021/12/16 03:58:37;;;;;;;52.70;34.17;;;;;;;8.05;100.00;103438.75;5031699;28;20067;-61
2021/12/16 04:01:09;;;;;;;59.22;35.38;;;;;;;8.04;99.69;103446.78;5030747;28;20041;-61
2021/12/16 04:03:34;;;;;;;51.30;34.20;;;;;;;8.05;100.00;103443.19;5030594;28;20050;-61
2021/12/16 04:06:00;;;;;;;55.50;35.58;;;;;;;8.04;100.00;103446.78;5031871;28;20094;-61
2021/12/16 04:08:26;;;;;;;58.83;35.47;;;;;;;8.05;99.97;103444.03;5031807;28;20048;-61
2021/12/16 04:11:05;;;;;;;53.22;33.92;;;;;;;8.02;100.00;103435.41;5031081;28;20037;-61
2021/12/16 04:13:36;;;;;;;50.38;34.15;;;;;;;8.03;99.90;103443.28;5030732;28;20033;-61
2021/12/16 04:16:03;;;;;;;54.00;34.83;;;;;;;8.04;100.00;103446.78;5029065;28;20033;-61
2021/12/16 04:18:28;;;;;;;56.60;35.65;;;;;;;8.04;100.00;103452.06;5030844;28;20033;-61
2021/12/16 04:20:54;;;;;;;51.55;33.70;;;;;;;8.03;100.00;103445.03;5029854;28;20025;-61
2021/12/16 04:23:19;;;;;;;50.22;33.80;;;;;;;8.04;100.00;103438.84;5030654;28;20410;-61
2021/12/16 04:25:46;;;;;;;52.95;34.03;;;;;;;8.02;100.00;103448.63;5031606;28;20064;-61
2021/12/16 04:28:22;;;;;;;56.28;35.17;;;;;;;8.02;99.98;103443.34;5029366;28;20029;-61
2021/12/16 04:30:48;;;;;;;55.05;33.00;;;;;;;8.01;100.00;103452.22;5031931;28;20029;-61
2021/12/16 04:33:14;;;;;;;52.63;34.78;;;;;;;8.01;100.00;103441.63;5031176;28;20022;-61
2021/12/16 04:35:41;;;;;;;56.58;34.90;;;;;;;8.01;100.00;103441.63;5031676;28;20025;-61
2021/12/16 04:38:09;;;;;;;58.95;34.88;;;;;;;7.98;100.00;103432.09;5030787;28;20029;-61
2021/12/16 04:40:36;;;;;;;57.22;35.53;;;;;;;7.99;100.00;103441.72;5031941;28;20112;-61
2021/12/16 04:43:04;;;;;;;54.47;35.22;;;;;;;7.96;100.00;103435.75;5037411;28;20032;-61
2021/12/16 04:45:32;;;;;;;56.80;34.33;;;;;;;7.98;100.00;103444.47;5035516;28;20034;-61
2021/12/16 04:47:57;;;;;;;55.75;35.08;;;;;;;7.98;100.00;103436.53;5031132;28;20433;-61
2021/12/16 04:50:23;;;;;;;52.22;34.63;;;;;;;7.94;100.00;103431.41;5030913;28;20037;-61
2021/12/16 04:52:48;;;;;;;53.75;34.58;;;;;;;7.94;100.00;103436.69;5031134;28;20434;-61
2021/12/16 04:55:15;;;;;;;54.38;34.65;;;;;;;7.91;100.00;103436.81;5030323;28;20049;-61
2021/12/16 04:57:42;;;;;;;52.85;35.47;;;;;;;7.92;100.00;103433.28;5030986;28;20037;-61
2021/12/16 05:00:12;;;;;;;54.83;34.65;;;;;;;7.90;100.00;103443.03;5030579;28;20563;-61
2021/12/16 05:02:38;;;;;;;50.70;34.33;;;;;;;7.88;100.00;103436.13;5030967;28;20026;-61
2021/12/16 05:05:05;;;;;;;56.35;34.17;;;;;;;7.88;100.00;103446.69;5024340;28;20053;-61
2021/12/16 05:07:30;;;;;;;51.90;35.13;;;;;;;7.86;100.00;103448.56;5030216;28;20117;-61
2021/12/16 05:10:04;;;;;;;51.72;32.85;;;;;;;7.81;99.78;103435.59;5031146;28;20476;-61
2021/12/16 05:12:35;;;;;;;50.47;34.20;;;;;;;7.74;100.00;103435.06;5029994;28;20033;-61
2021/12/16 05:15:08;;;;;;;52.65;33.72;;;;;;;7.75;100.00;103441.22;5028821;28;20406;-61
2021/12/16 05:17:40;;;;;;;53.88;34.53;;;;;;;7.71;100.00;103442.28;5028555;28;20049;-61
2021/12/16 05:20:10;;;;;;;52.38;33.78;;;;;;;7.67;100.00;103444.22;5030903;28;20034;-61
2021/12/16 05:25:33;;;;;;;47.70;32.20;;;;;;;7.61;99.52;103445.38;5029560;28;20121;-61
2021/12/16 05:27:58;;;;;;;55.88;34.13;;;;;;;7.58;99.67;103444.69;5028281;28;20032;-60
2021/12/16 05:30:24;;;;;;;53.00;32.95;;;;;;;7.57;99.87;103449.13;5029015;28;20124;-61
2021/12/16 05:32:49;;;;;;;53.47;33.92;;;;;;;7.56;99.93;103463.28;5030362;28;20446;-61
2021/12/16 05:35:20;;;;;;;50.40;32.92;;;;;;;7.49;99.98;103461.84;5030094;28;20029;-61
2021/12/16 05:37:46;;;;;;;52.65;33.80;;;;;;;7.51;99.61;103465.28;5029067;28;20034;-59
2021/12/16 05:40:15;;;;;;;47.45;31.42;;;;;;;7.40;99.42;103453.47;5027919;28;20031;-61
2021/12/16 05:42:41;;;;;;;51.72;31.80;;;;;;;7.45;99.11;103462.94;5036249;28;20101;-61
2021/12/16 05:45:08;;;;;;;47.35;31.30;;;;;;;7.39;99.07;103464.94;5027892;28;20033;-61
2021/12/16 05:47:34;;;;;;;42.17;29.05;;;;;;;7.33;98.11;103465.25;5027057;28;20025;-61
2021/12/16 05:49:59;;;;;;;44.85;30.38;;;;;;;7.30;98.30;103470.66;5027730;28;20579;-61
2021/12/16 05:52:25;;;;;;;36.75;26.30;;;;;;;7.21;97.71;103484.31;5029811;28;20037;-61
2021/12/16 05:54:50;;;;;;;35.78;24.40;;;;;;;7.18;97.50;103479.19;5029477;28;20037;-62
2021/12/16 05:57:16;;;;;;;42.10;27.40;;;;;;;7.14;97.08;103475.84;5031152;28;20037;-61
2021/12/16 05:59:41;;;;;;;36.65;26.02;;;;;;;7.05;96.14;103490.31;5032765;28;20041;-61
2021/12/16 06:02:07;;;;;;;38.03;27.13;;;;;;;7.05;96.66;103485.03;5030641;28;20474;-61
2021/12/16 06:04:33;;;;;;;38.33;26.95;;;;;;;6.98;96.18;103495.06;5028801;28;20187;-61
2021/12/16 06:07:00;;;;;;;46.65;29.83;;;;;;;6.96;96.91;103491.63;5030847;28;20046;-61
2021/12/16 06:09:25;;;;;;;46.90;30.88;;;;;;;6.96;98.02;103496.06;5023996;28;20037;-62
2021/12/16 06:11:53;;;;;;;45.08;29.33;;;;;;;6.90;97.21;103504.25;5027855;28;20029;-61
2021/12/16 06:14:24;;;;;;;34.95;23.80;;;;;;;6.80;96.02;103509.94;5031819;28;20029;-61
2021/12/16 06:27:51;;;;;;;42.47;27.95;;;;;;;6.64;95.83;103508.91;5027277;28;20048;-61
2021/12/16 06:30:22;;;;;;;44.92;29.92;;;;;;;6.64;96.81;103512.44;5033271;28;20033;-61
2021/12/16 06:32:48;;;;;;;41.40;29.20;;;;;;;6.62;97.02;103514.28;5029601;28;20053;-61
2021/12/16 06:35:14;;;;;;;38.08;27.02;;;;;;;6.61;96.18;103516.97;5025188;28;20053;-61
2021/12/16 06:37:39;;;;;;;37.22;26.38;;;;;;;6.57;95.36;103519.75;5027420;28;20033;-61
2021/12/16 06:40:06;;;;;;;41.60;27.38;;;;;;;6.51;95.22;103517.38;5029861;28;20063;-61
2021/12/16 06:42:34;;;;;;;43.78;28.90;;;;;;;6.52;96.77;103511.19;5024124;28;20025;-62
2021/12/16 06:45:07;;;;;;;36.00;24.73;;;;;;;6.44;96.12;103522.09;5026664;28;20528;-61
2021/12/16 06:47:47;;;;;;;39.65;25.05;;;;;;;6.42;95.96;103520.44;5030715;28;20033;-61
2021/12/16 06:50:24;;;;;;;33.65;23.95;;;;;;;6.32;94.99;103514.72;5027045;28;20044;-63
2021/12/16 06:52:50;;;;;;;36.42;23.48;;;;;;;6.39;95.12;103523.19;5026471;28;20025;-62
2021/12/16 06:55:28;;;;;;;36.10;25.17;;;;;;;6.32;94.99;103522.63;5028726;28;20032;-61
2021/12/16 06:57:56;;;;;;;37.35;26.15;;;;;;;6.31;95.52;103521.75;5026003;28;20029;-62
2021/12/16 07:00:47;;;;;;;44.83;29.52;;;;;;;6.30;96.34;103525.31;5028038;28;20052;-61
2021/12/16 07:03:21;;;;;;;43.30;29.35;;;;;;;6.30;96.08;103530.59;5022016;28;20382;-61
2021/12/16 07:05:52;;;;;;;40.13;27.27;;;;;;;6.24;94.71;103524.72;5025072;28;20037;-61
2021/12/16 07:08:19;;;;;;;39.45;26.92;;;;;;;6.19;94.62;103522.28;5023817;28;20034;-61
2021/12/16 07:10:48;;;;;;;38.05;25.50;;;;;;;6.19;95.04;103535.47;5023829;28;20087;-61
2021/12/16 07:13:28;;;;;;;38.13;26.08;;;;;;;6.11;94.78;103534.94;5024598;28;20038;-62
2021/12/16 07:15:54;;;;;;;38.25;24.95;;;;;;;6.13;95.17;103541.00;5028124;28;20037;-61
2021/12/16 07:18:20;;;;;;;45.75;29.60;;;;;;;6.11;95.85;103540.22;5027079;28;20029;-63
2021/12/16 07:20:45;;;;;;;48.38;31.52;;;;;;;6.17;95.91;103555.75;5026907;28;20441;-62
2021/12/16 07:23:11;;;;;;;45.90;28.48;;;;;;;6.14;95.75;103566.41;5027881;28;20501;-59
2021/12/16 07:25:37;;;;;;;45.45;30.00;;;;;;;6.14;95.93;103558.50;5024385;28;20143;-63
2021/12/16 07:28:04;;;;;;;32.85;22.65;;;;;;;6.02;94.68;103560.75;5027061;28;20352;-63
2021/12/16 07:30:30;;;;;;;49.53;31.30;;;;;;;5.96;96.24;103568.88;5024646;28;20082;-62
2021/12/16 07:32:55;;;;;;;51.95;31.27;;;;;;;5.99;96.32;103574.03;5024578;28;20084;-62
2021/12/16 07:35:24;;;;;;;43.33;28.88;;;;;;;5.93;95.43;103584.81;5024962;28;20486;-62
2021/12/16 07:37:50;;;;;;;46.95;29.52;;;;;;;5.95;95.61;103587.38;5025507;28;20236;-62
2021/12/16 07:40:18;;;;;;;42.55;28.95;;;;;;;5.91;95.40;103591.91;5020271;28;20302;-62
2021/12/16 07:45:31;;;;;;;44.45;29.35;;;;;;;5.88;95.47;103586.78;5009669;28;20498;-62
2021/12/16 07:47:57;;;;;;;46.97;30.77;;;;;;;5.91;96.23;103590.13;5029812;28;20048;-60
2021/12/16 07:50:22;;;;;;;45.05;29.98;;;;;;;5.87;95.89;103595.59;5029818;28;20041;-59
2021/12/16 07:52:48;;;;;;;45.58;30.17;;;;;;;5.90;96.21;103606.88;5030544;28;20037;-60
2021/12/16 07:55:14;;;;;;;43.78;29.70;;;;;;;5.90;95.83;103616.53;5026926;28;20099;-60
2021/12/16 07:57:40;;;;;;;43.40;28.17;;;;;;;5.81;94.92;103616.91;5030491;28;20453;-59
2021/12/16 08:00:12;;;;;;;44.17;27.50;;;;;;;5.75;95.00;103613.59;5027645;28;20089;-59
2021/12/16 08:02:38;;;;;;;41.55;28.10;;;;;;;5.82;95.38;103634.44;5025295;28;20049;-59
2021/12/16 08:05:06;;;;;;;41.83;28.33;;;;;;;5.80;95.27;103629.22;5031638;28;20042;-59
2021/12/16 08:07:32;;;;;;;40.45;27.88;;;;;;;5.81;94.90;103632.72;5028027;28;20025;-59
2021/12/16 08:09:57;;;;;;;38.40;26.95;;;;;;;5.78;94.83;103633.69;5021699;28;20099;-59
2021/12/16 08:12:22;;;;;;;39.78;27.65;;;;;;;5.77;95.00;103640.72;5020671;28;20029;-58
2021/12/16 08:14:48;;;;;;;40.70;27.30;;;;;;;5.75;94.33;103639.94;5025135;28;20464;-59
2021/12/16 08:17:15;;;;;;;35.97;25.30;;;;;;;5.73;94.63;103651.44;5026099;28;20071;-59
2021/12/16 08:19:41;;;;;;;35.15;24.13;;;;;;;5.69;94.71;103649.84;5027368;28;20029;-59
2021/12/16 08:22:07;;;;;;;38.60;26.92;;;;;;;5.69;94.22;103645.44;5028171;28;20033;-59
2021/12/16 08:24:33;;;;;;;39.83;26.15;;;;;;;5.65;94.65;103660.50;5031553;28;20061;-59
2021/12/16 08:26:59;;;;;;;42.65;28.77;;;;;;;5.67;95.14;103663.06;5033922;28;20032;-59
2021/12/16 08:29:24;;;;;;;40.45;27.55;;;;;;;5.72;94.75;103661.09;5031263;28;20026;-59
2021/12/16 08:31:52;;;;;;;38.67;26.05;;;;;;;5.71;94.47;103661.16;5030912;28;20041;-59
2021/12/16 08:34:18;;;;;;;39.22;26.95;;;;;;;5.70;94.73;103667.34;5030435;28;20037;-59
2021/12/16 08:36:44;;;;;;;40.72;27.80;;;;;;;5.73;95.34;103673.34;5030161;28;20048;-60
2021/12/16 08:39:11;;;;;;;40.83;28.00;;;;;;;5.75;94.70;103666.28;5030824;28;20037;-59
2021/12/16 08:41:43;;;;;;;45.22;30.05;;;;;;;5.75;95.04;103666.28;5030513;28;20025;-59
2021/12/16 08:44:08;;;;;;;47.33;28.88;;;;;;;5.82;95.52;103671.28;5032012;28;20531;-59
2021/12/16 08:46:38;;;;;;;46.20;29.90;;;;;;;5.78;95.48;103666.13;5026466;28;20022;-60
2021/12/16 08:49:04;;;;;;;49.50;31.67;;;;;;;5.86;95.76;103667.59;5030542;28;20033;-57
2021/12/16 08:51:33;;;;;;;49.35;31.02;;;;;;;5.88;96.13;103665.78;5029550;28;20044;-59
2021/12/16 08:53:59;;;;;;;55.03;32.58;;;;;;;5.93;96.71;103684.91;5031029;28;20108;-59
2021/12/16 08:56:27;;;;;;;48.30;30.73;;;;;;;5.95;96.48;103676.91;5027426;28;20200;-59
2021/12/16 08:58:54;;;;;;;45.72;30.17;;;;;;;6.04;95.99;103682.75;5021809;28;20044;-58
2021/12/16 09:01:23;;;;;;;43.63;30.33;;;;;;;6.02;96.57;103695.09;5023907;28;20036;-58
2021/12/16 09:03:54;;;;;;;44.88;29.17;;;;;;;6.05;96.16;103705.53;5026081;28;20048;-60
2021/12/16 09:06:20;;;;;;;47.28;29.50;;;;;;;6.06;96.44;103698.47;5026463;28;20790;-60
2021/12/16 09:08:45;;;;;;;45.10;29.42;;;;;;;6.05;96.86;103700.25;5029439;28;20124;-60
2021/12/16 09:11:18;;;;;;;46.45;31.50;;;;;;;6.08;97.34;103704.56;5029827;28;20116;-59
2021/12/16 09:13:45;;;;;;;40.45;28.15;;;;;;;6.15;96.43;103702.50;5029090;28;20367;-59
2021/12/16 09:16:14;;;;;;;43.90;28.80;;;;;;;6.13;96.83;103691.19;5030653;28;20029;-59
2021/12/16 09:18:41;;;;;;;43.75;29.98;;;;;;;6.19;97.06;103690.94;5029748;28;20026;-59
2021/12/16 09:21:10;;;;;;;45.88;30.60;;;;;;;6.26;97.03;103705.56;5028840;28;20025;-60
2021/12/16 09:23:36;;;;;;;45.15;30.90;;;;;;;6.30;97.16;103712.44;5028442;28;20033;-59
2021/12/16 09:26:03;;;;;;;48.47;32.60;;;;;;;6.38;97.28;103706.00;5028555;28;20123;-60
2021/12/16 09:28:29;;;;;;;51.83;33.40;;;;;;;6.49;98.85;103703.78;5027449;28;20033;-60
2021/12/16 09:30:54;;;;;;;56.55;36.38;;;;;;;6.54;98.78;103701.81;5023857;28;20044;-60
2021/12/16 09:33:22;;;;;;;52.63;33.85;;;;;;;6.56;98.88;103710.50;5027592;28;20577;-60
2021/12/16 09:35:51;;;;;;;53.92;35.13;;;;;;;6.56;98.75;103707.88;5029428;28;20056;-60
2021/12/16 09:38:18;;;;;;;54.85;35.63;;;;;;;6.67;99.50;103706.56;5032159;28;20501;-60
2021/12/16 09:40:50;;;;;;;55.53;35.08;;;;;;;6.66;99.07;103705.69;5033619;28;20108;-61
2021/12/16 09:43:18;;;;;;;56.13;36.88;;;;;;;6.75;99.43;103719.44;5033467;28;20037;-60
2021/12/16 09:45:44;;;;;;;57.65;37.50;;;;;;;6.81;100.00;103708.63;5032357;28;20032;-60
2021/12/16 09:48:09;;;;;;;62.42;39.85;;;;;;;6.93;100.00;103709.88;5033282;28;20083;-60
2021/12/16 09:50:35;;;;;;;60.15;38.75;;;;;;;6.97;100.00;103717.56;5033509;28;20514;-60
2021/12/16 09:53:01;;;;;;;54.17;35.80;;;;;;;7.01;99.77;103713.06;5033000;28;20033;-59
2021/12/16 09:55:28;;;;;;;58.45;38.65;;;;;;;7.08;100.00;103714.50;5032290;28;20036;-61
2021/12/16 09:57:54;;;;;;;58.17;38.58;;;;;;;7.12;100.00;103718.69;5031764;28;20104;-60
2021/12/16 10:00:24;;;;;;;60.58;40.58;;;;;;;7.19;100.00;103710.50;5032608;28;20474;-59
2021/12/16 10:02:51;;;;;;;64.40;40.25;;;;;;;7.24;100.00;103711.16;5032496;28;20131;-60
2021/12/16 10:05:16;;;;;;;63.42;41.00;;;;;;;7.29;100.00;103719.72;5032629;28;20118;-59
2021/12/16 10:07:42;;;;;;;63.38;40.78;;;;;;;7.30;100.00;103717.97;5033903;28;20075;-60
2021/12/16 10:10:20;;;;;;;61.13;40.03;;;;;;;7.35;100.00;103713.34;5029675;28;20030;-59
2021/12/16 10:12:49;;;;;;;64.82;40.75;;;;;;;7.45;100.00;103713.78;5025781;28;20025;-60
2021/12/16 10:18:04;;;;;;;65.78;40.92;;;;;;;7.51;100.00;103714.34;5030276;28;20045;-60
2021/12/16 10:20:34;;;;;;;65.03;42.22;;;;;;;7.62;100.00;103716.50;5028689;28;20029;-60
2021/12/16 10:23:12;;;;;;;63.60;41.65;;;;;;;7.71;100.00;103712.56;5032885;28;20052;-60
2021/12/16 10:25:41;;;;;;;64.40;41.47;;;;;;;7.81;100.00;103715.63;5033886;28;20033;-60
2021/12/16 10:28:27;;;;;;;63.85;41.95;;;;;;;7.90;100.00;103719.63;5033480;28;20022;-60
2021/12/16 10:31:14;;;;;;;64.97;42.22;;;;;;;8.01;100.00;103719.13;5028644;28;20017;-60
2021/12/16 10:33:43;;;;;;;63.78;42.38;;;;;;;8.10;100.00;103710.75;5028897;28;20036;-60
2021/12/16 10:36:15;;;;;;;65.07;42.08;;;;;;;8.12;100.00;103698.31;5027377;28;20029;-60
2021/12/16 10:38:49;;;;;;;60.63;39.37;;;;;;;8.23;100.00;103715.44;5031939;28;20536;-60
2021/12/16 10:41:23;;;;;;;63.53;39.90;;;;;;;8.25;100.00;103713.56;5022170;28;20036;-60
2021/12/16 10:44:04;;;;;;;62.70;39.92;;;;;;;8.33;100.00;103704.34;5030805;28;20113;-61
2021/12/16 10:46:35;;;;;;;56.70;39.47;;;;;;;8.34;100.00;103705.22;5026932;28;20030;-58
2021/12/16 10:49:06;;;;;;;62.10;40.97;;;;;;;8.45;100.00;103710.78;5026633;28;20112;-58
2021/12/16 10:51:36;;;;;;;58.05;38.75;;;;;;;8.51;100.00;103714.06;5026214;28;20080;-59
2021/12/16 10:54:18;;;;;;;61.25;39.83;;;;;;;8.61;100.00;103715.34;5025297;28;20036;-59
2021/12/16 10:56:47;;;;;;;55.22;37.72;;;;;;;8.66;100.00;103713.34;5030306;28;20025;-58
2021/12/16 10:59:20;;;;;;;54.53;36.13;;;;;;;8.71;98.73;103716.63;5030276;28;20038;-59
2021/12/16 11:01:48;;;;;;;50.63;34.80;;;;;;;8.74;98.42;103713.78;5032116;28;20047;-58
2021/12/16 11:04:48;;;;;;;55.03;37.30;;;;;;;8.81;99.20;103716.13;5030056;28;20132;-58
2021/12/16 11:07:22;;;;;;;54.63;35.28;;;;;;;8.88;98.84;103723.69;5026036;28;20037;-58
2021/12/16 11:09:50;;;;;;;51.50;33.95;;;;;;;8.85;98.55;103721.22;5031093;28;20087;-59
2021/12/16 11:12:32;;;;;;;49.47;33.38;;;;;;;8.95;98.16;103724.22;5032618;28;20048;-58
2021/12/16 11:15:11;;;;;;;50.70;33.53;;;;;;;9.02;98.64;103725.63;5028789;28;20030;-58
2021/12/16 11:17:51;;;;;;;49.03;31.38;;;;;;;9.06;97.70;103725.44;5029734;28;20056;-58
2021/12/16 11:20:38;;;;;;;51.38;33.92;;;;;;;9.13;97.73;103732.97;5031023;28;20036;-58
2021/12/16 11:23:21;;;;;;;44.65;31.15;;;;;;;9.08;97.06;103726.25;5030549;28;20033;-58
2021/12/16 11:25:55;;;;;;;44.38;30.30;;;;;;;9.06;96.88;103728.09;5032051;28;20085;-58
2021/12/16 11:28:24;;;;;;;44.47;28.75;;;;;;;9.06;96.94;103726.31;5029123;28;20048;-59
2021/12/16 11:31:02;;;;;;;41.35;26.80;;;;;;;9.15;96.24;103730.25;5029511;28;20534;-59
2021/12/16 11:33:29;;;;;;;40.40;26.98;;;;;;;9.09;95.51;103727.94;5030151;28;20037;-59
2021/12/16 11:36:12;;;;;;;40.78;26.67;;;;;;;9.06;96.29;103733.38;5032398;28;20032;-57
2021/12/16 11:38:45;;;;;;;42.28;28.15;;;;;;;9.06;97.44;103725.44;5030460;28;20505;-59
2021/12/16 11:41:21;;;;;;;43.28;28.30;;;;;;;9.11;96.87;103724.28;5031486;28;20041;-59
2021/12/16 11:44:01;;;;;;;44.30;26.75;;;;;;;9.09;97.18;103730.59;5028660;28;20041;-58
2021/12/16 11:46:38;;;;;;;40.78;27.10;;;;;;;9.09;96.55;103720.00;5030518;28;20096;-58
2021/12/16 11:49:24;;;;;;;36.45;23.75;;;;;;;9.15;96.96;103719.69;5029556;28;20033;-58
2021/12/16 11:51:56;;;;;;;33.08;23.52;;;;;;;9.19;96.02;103715.94;5031649;28;20033;-59
2021/12/16 11:54:27;;;;;;;38.83;25.95;;;;;;;9.29;95.66;103718.94;5032534;28;20025;-58
2021/12/16 11:57:10;;;;;;;36.95;23.90;;;;;;;9.34;96.46;103716.91;5024106;28;20060;-58
2021/12/16 11:59:41;;;;;;;33.03;18.95;;;;;;;9.42;94.71;103716.47;5031004;28;20390;-59
2021/12/16 12:02:24;;;;;;;34.30;18.88;;;;;;;9.51;93.40;103713.34;5031647;28;20083;-62
2021/12/16 12:04:50;;;;;;;31.13;19.33;;;;;;;9.48;93.92;103715.31;5037689;28;20044;-58
2021/12/16 12:07:17;;;;;;;30.20;17.77;;;;;;;9.52;93.91;103717.69;5022390;28;20061;-59
2021/12/16 12:09:50;;;;;;;33.97;18.08;;;;;;;9.48;94.47;103694.94;5031859;28;20041;-59
2021/12/16 12:12:36;;;;;;;32.85;18.83;;;;;;;9.52;94.15;103707.09;5032293;28;20057;-58
2021/12/16 12:15:07;;;;;;;31.67;18.92;;;;;;;9.51;92.63;103716.00;5030109;28;20033;-58
2021/12/16 12:17:51;;;;;;;30.90;18.95;;;;;;;9.55;93.80;103706.94;5030940;28;20029;-59
2021/12/16 12:20:19;;;;;;;28.73;17.02;;;;;;;9.59;91.59;103712.06;5031434;28;20051;-58
2021/12/16 12:22:50;;;;;;;26.27;16.90;;;;;;;9.54;93.38;103714.97;5027543;28;20030;-58
2021/12/16 12:25:16;;;;;;;29.48;18.20;;;;;;;9.55;93.00;103714.91;5031839;28;20057;-58
2021/12/16 12:27:41;;;;;;;28.02;18.70;;;;;;;9.54;93.05;103710.50;5030811;28;20399;-60
2021/12/16 12:30:07;;;;;;;27.90;18.35;;;;;;;9.54;92.10;103705.22;5031011;28;20029;-60
2021/12/16 12:32:39;;;;;;;29.13;18.40;;;;;;;9.51;92.31;103705.41;5030824;28;20030;-60
2021/12/16 12:35:07;;;;;;;31.67;18.38;;;;;;;9.54;92.37;103707.88;5031482;28;20021;-61
2021/12/16 12:37:36;;;;;;;31.92;18.80;;;;;;;9.53;92.81;103706.16;5031133;28;20027;-60
2021/12/16 12:40:11;;;;;;;37.28;20.70;;;;;;;9.57;93.12;103708.66;5026721;28;20034;-60
2021/12/16 12:42:37;;;;;;;32.30;20.35;;;;;;;9.57;93.12;103703.34;5030892;28;20040;-61
2021/12/16 12:45:06;;;;;;;32.60;20.90;;;;;;;9.57;93.19;103704.19;5030969;28;20041;-60
2021/12/16 12:47:34;;;;;;;33.25;21.50;;;;;;;9.57;93.09;103713.94;5031213;28;20390;-60
2021/12/16 12:50:10;;;;;;;31.20;20.92;;;;;;;9.60;93.02;103708.47;5030925;28;20104;-61
2021/12/16 12:52:36;;;;;;;31.55;20.20;;;;;;;9.64;92.55;103710.03;5030709;28;20022;-60
2021/12/16 12:55:18;;;;;;;31.98;20.75;;;;;;;9.65;92.06;103694.06;5031834;28;20044;-60
2021/12/16 12:57:45;;;;;;;34.60;21.40;;;;;;;9.69;92.69;103689.44;5023242;28;20037;-60
2021/12/16 13:00:28;;;;;;;33.20;20.50;;;;;;;9.77;92.50;103704.91;5030067;28;20029;-60
2021/12/16 13:03:16;;;;;;;33.13;20.90;;;;;;;9.81;91.79;103695.81;5026960;28;20029;-60
2021/12/16 13:05:50;;;;;;;32.65;20.52;;;;;;;9.86;91.76;103692.94;5030041;28;20048;-61
2021/12/16 13:08:17;;;;;;;30.45;20.02;;;;;;;9.86;90.53;103687.63;5032730;28;20030;-61
2021/12/16 13:10:47;;;;;;;31.65;19.88;;;;;;;9.84;91.09;103690.38;5035243;28;20026;-60
2021/12/16 13:16:11;;;;;;;35.28;20.70;;;;;;;9.86;90.57;103688.47;5026604;28;20037;-61
2021/12/16 13:27:07;;;;;;;27.08;18.17;;;;;;;9.95;88.50;103692.41;5023183;28;20068;-62
2021/12/16 13:29:39;;;;;;;31.92;18.85;;;;;;;9.97;88.19;103695.84;5029693;28;20449;-60
2021/12/16 13:34:54;;;;;;;30.35;17.98;;;;;;;9.98;87.67;103696.69;5032503;28;20052;-60
2021/12/16 13:37:53;;;;;;;28.90;17.75;;;;;;;10.04;87.55;103696.34;5032212;28;20045;-60
2021/12/16 13:40:26;;;;;;;31.88;19.20;;;;;;;9.99;88.28;103699.25;5027270;28;20486;-60
2021/12/16 13:42:58;;;;;;;31.42;17.85;;;;;;;9.99;88.91;103699.25;5032060;28;20091;-59
2021/12/16 13:45:29;;;;;;;26.45;17.30;;;;;;;9.98;88.30;103702.84;5031626;28;20509;-60
2021/12/16 14:05:19;;;;;;;26.10;17.08;;;;;;;9.95;88.09;103705.66;5028169;28;20147;-59
2021/12/16 14:07:57;;;;;;;25.27;15.98;;;;;;;9.90;86.92;103702.41;5025220;28;20048;-60
2021/12/16 14:14:11;;;;;;;26.30;14.98;;;;;;;9.91;85.96;103701.47;5038093;28;20050;-60
2021/12/16 14:16:36;;;;;;;22.15;12.80;;;;;;;9.95;84.58;103701.22;5031340;28;20045;-60
2021/12/16 14:25:22;;;;;;;23.63;12.30;;;;;;;9.83;84.25;103716.00;5023342;28;20102;-60
2021/12/16 14:36:44;;;;;;;25.25;12.88;;;;;;;9.77;83.09;103723.47;5032977;28;20087;-62
2021/12/16 14:42:04;;;;;;;23.50;12.30;;;;;;;9.75;83.75;103728.84;5030547;28;20045;-60
2021/12/16 14:49:49;;;;;;;24.05;13.32;;;;;;;9.54;85.36;103730.88;5031704;28;20045;-58
2021/12/16 14:52:18;;;;;;;23.80;12.93;;;;;;;9.50;85.05;103740.78;5031261;28;20021;-58
2021/12/16 14:54:55;;;;;;;23.38;13.18;;;;;;;9.46;85.80;103741.88;5031896;28;20025;-58
2021/12/16 14:57:28;;;;;;;27.95;13.63;;;;;;;9.35;86.77;103725.69;5032585;28;20095;-58
2021/12/16 14:59:54;;;;;;;25.67;13.23;;;;;;;9.32;86.05;103733.81;5027978;28;20025;-57